WIII/CGK METAR and TAF weather

Enter ICAO airport designator
Station Type Date Time Source
WIII METAR 2020/01/23 06:00 UTC NOAA

WIII 230600Z 34010KT 9000 SCT020 31/25 Q1010 NOSIG


Station Type Date Time Source
WIII Decoded METAR 2020/01/23 06:00 UTC NOAA

Jakarta / Soekarno-Hatta, Indonesia (WIII) 06-07S 106-39E 8M
Jan 23, 2020 - 01:00 AM EST / 2020.01.23 0600 UTC
Wind: from the NNW (340 degrees) at 12 MPH (10 KT):0
Visibility: 5 mile(s):0
Sky conditions: partly cloudy
Temperature: 87 F (31 C)
Heat index: 97.5 F (36.4 C):1
Dew Point: 77 F (25 C)
Relative Humidity: 70%
Pressure (altimeter): 29.83 in. Hg (1010 hPa)
ob: WIII 230600Z 34010KT 9000 SCT020 31/25 Q1010 NOSIG
cycle: 6

Station Type Date Time Source
WIII TAF 2020/01/23 06:35 UTC NOAA

TAF WIII 230500Z 2306/2412 32012KT 8000 SCT020
TEMPO 2307/2310 SHRA FEW015CB
BECMG 2316/2318 VRB02KT
TEMPO 2320/2323 VCTS FEW015CB
BECMG 2401/2403 33010KT

Example: see airport list